Time;durP1;ratioP1;P1;durP2;ratioP2;P2;SDS_P1;SDS_P2;PMS_P1;PMS_P2;Temp;Humidity;BMP_temperature;BMP_pressure;BME280_temperature;BME280_humidity;BME280_pressure;Samples;Min_cycle;Max_cycle;Signal;HPM_P1;HPM_P2
2021/05/03 00:01:53;;;;;;;2.25;2.05;;;12.40;44.20;;;;;;5028509;28;20083;-80
2021/05/03 00:04:19;;;;;;;2.60;2.13;;;12.40;44.20;;;;;;5029871;28;20087;-79
2021/05/03 00:06:45;;;;;;;2.95;2.50;;;12.40;44.30;;;;;;5029740;28;20025;-81
2021/05/03 00:09:11;;;;;;;2.50;2.10;;;12.40;44.90;;;;;;5029274;28;20568;-80
2021/05/03 00:11:37;;;;;;;2.40;2.13;;;12.30;44.20;;;;;;5029956;28;20487;-79
2021/05/03 00:14:04;;;;;;;3.17;2.33;;;12.30;44.20;;;;;;5011481;28;20048;-80
2021/05/03 00:16:30;;;;;;;2.95;2.50;;;12.30;44.30;;;;;;5029314;28;20029;-78
2021/05/03 00:18:56;;;;;;;2.78;2.20;;;12.20;44.10;;;;;;5029606;28;20048;-79
2021/05/03 00:21:22;;;;;;;2.40;2.20;;;12.20;44.10;;;;;;5028893;28;20034;-78
2021/05/03 00:23:48;;;;;;;2.22;2.03;;;12.20;44.20;;;;;;5029094;28;20120;-82
2021/05/03 00:26:15;;;;;;;3.40;2.30;;;12.20;44.20;;;;;;5028762;28;20488;-79
2021/05/03 00:28:41;;;;;;;2.40;2.20;;;12.10;44.10;;;;;;5029493;28;20029;-78
2021/05/03 00:31:08;;;;;;;2.55;2.35;;;12.00;44.00;;;;;;5028074;28;20033;-79
2021/05/03 00:33:34;;;;;;;3.17;2.78;;;12.10;44.30;;;;;;5034280;28;20113;-77
2021/05/03 00:36:01;;;;;;;2.55;2.33;;;12.00;44.10;;;;;;5028386;28;20516;-78
2021/05/03 00:38:27;;;;;;;4.65;2.25;;;12.00;44.20;;;;;;5028723;28;20049;-79
2021/05/03 00:40:53;;;;;;;2.50;2.30;;;12.00;44.30;;;;;;5010659;28;20037;-78
2021/05/03 00:43:20;;;;;;;2.60;2.40;;;11.90;44.10;;;;;;5028419;28;20367;-78
2021/05/03 00:45:48;;;;;;;2.33;2.10;;;11.90;44.20;;;;;;5013412;28;20523;-78
2021/05/03 00:48:14;;;;;;;3.08;2.33;;;11.80;44.10;;;;;;5045742;28;20032;-78
2021/05/03 00:50:42;;;;;;;2.75;2.50;;;11.80;44.10;;;;;;5010929;28;20485;-78
2021/05/03 00:53:08;;;;;;;3.60;2.58;;;11.80;44.80;;;;;;5026914;28;20363;-80
2021/05/03 00:55:34;;;;;;;2.30;2.10;;;11.80;44.20;;;;;;5010490;28;20033;-77
2021/05/03 00:58:03;;;;;;;3.78;2.58;;;11.70;44.10;;;;;;5011076;28;20051;-79
2021/05/03 01:00:30;;;;;;;3.58;2.08;;;11.70;44.20;;;;;;5032657;28;20021;-78
2021/05/03 01:02:58;;;;;;;3.10;2.42;;;11.70;44.20;;;;;;5044868;28;20136;-77
2021/05/03 01:05:28;;;;;;;2.50;2.30;;;11.70;44.20;;;;;;5028716;28;20029;-78
2021/05/03 01:07:54;;;;;;;2.60;2.40;;;11.70;44.30;;;;;;5011183;28;20029;-78
2021/05/03 01:10:20;;;;;;;3.15;2.00;;;11.70;44.30;;;;;;5016263;28;20033;-79
2021/05/03 01:12:48;;;;;;;2.50;2.30;;;11.60;44.10;;;;;;5025275;28;20083;-80
2021/05/03 01:15:15;;;;;;;2.63;2.40;;;11.60;44.20;;;;;;5025607;28;20416;-79
2021/05/03 01:17:41;;;;;;;3.05;2.55;;;11.60;44.20;;;;;;5028426;28;20388;-79
2021/05/03 01:20:11;;;;;;;2.25;2.05;;;11.60;44.20;;;;;;5025637;28;20033;-80
2021/05/03 01:22:38;;;;;;;2.60;2.40;;;11.50;44.10;;;;;;5028197;28;20049;-79
2021/05/03 01:25:07;;;;;;;4.15;2.58;;;11.50;44.10;;;;;;5007648;28;20398;-78
2021/05/03 01:27:34;;;;;;;2.47;2.28;;;11.50;44.20;;;;;;5009581;28;20506;-79
2021/05/03 01:30:09;;;;;;;2.83;2.53;;;11.50;44.20;;;;;;5027496;28;20474;-79
2021/05/03 01:32:36;;;;;;;3.90;2.67;;;11.50;44.20;;;;;;5025031;28;20528;-78
2021/05/03 01:35:03;;;;;;;2.63;2.35;;;11.40;44.10;;;;;;5018540;28;20038;-79
2021/05/03 01:37:29;;;;;;;2.35;2.15;;;11.40;44.20;;;;;;5011749;28;20044;-80
2021/05/03 01:39:55;;;;;;;2.95;2.65;;;11.40;44.20;;;;;;5023795;28;20087;-79
2021/05/03 01:42:23;;;;;;;3.92;2.70;;;11.40;44.20;;;;;;5007055;28;20029;-78
2021/05/03 01:44:55;;;;;;;2.53;2.30;;;11.30;44.10;;;;;;5010855;28;20033;-78
2021/05/03 01:47:21;;;;;;;4.43;2.75;;;11.30;44.20;;;;;;5009094;28;20029;-78
2021/05/03 01:49:47;;;;;;;2.88;2.58;;;11.30;44.20;;;;;;5031218;28;20033;-78
2021/05/03 01:52:13;;;;;;;2.63;2.17;;;11.30;44.20;;;;;;5031308;28;20040;-77
2021/05/03 01:54:39;;;;;;;4.05;2.65;;;11.30;44.30;;;;;;5014182;28;20124;-79
2021/05/03 01:57:05;;;;;;;2.90;2.60;;;11.30;44.30;;;;;;5031698;28;20033;-78
2021/05/03 01:59:34;;;;;;;2.60;2.40;;;11.20;44.20;;;;;;5014214;28;20116;-78
2021/05/03 02:02:01;;;;;;;2.92;2.60;;;11.20;44.20;;;;;;5031370;28;20036;-79
2021/05/03 02:04:27;;;;;;;2.60;2.33;;;11.20;44.20;;;;;;5031859;28;20033;-79
2021/05/03 02:06:53;;;;;;;2.70;2.30;;;11.20;44.20;;;;;;5013645;28;20040;-79
2021/05/03 02:09:19;;;;;;;2.65;2.20;;;11.20;44.30;;;;;;5031559;28;20232;-78
2021/05/03 02:11:45;;;;;;;2.90;2.70;;;11.20;44.30;;;;;;5031572;28;20158;-78
2021/05/03 02:14:11;;;;;;;3.08;2.55;;;11.10;44.20;;;;;;5031750;28;20541;-80
2021/05/03 02:16:38;;;;;;;2.65;2.45;;;11.10;44.80;;;;;;5013900;28;20026;-81
2021/05/03 02:19:04;;;;;;;3.70;2.60;;;11.10;44.20;;;;;;5030687;28;20115;-78
2021/05/03 02:21:30;;;;;;;3.75;3.08;;;11.10;44.30;;;;;;4997094;28;20033;-80
2021/05/03 02:23:56;;;;;;;4.70;2.58;;;11.10;44.30;;;;;;5031244;28;20104;-78
2021/05/03 02:26:22;;;;;;;2.40;2.20;;;11.00;44.10;;;;;;5030954;28;20060;-78
2021/05/03 02:28:50;;;;;;;2.53;2.30;;;11.10;44.40;;;;;;5031333;28;20038;-80
2021/05/03 02:31:18;;;;;;;2.85;2.33;;;11.00;44.20;;;;;;5030257;28;20042;-78
2021/05/03 02:33:43;;;;;;;3.75;3.03;;;11.00;44.30;;;;;;5031116;28;20124;-79
2021/05/03 02:36:10;;;;;;;2.83;2.47;;;11.00;44.30;;;;;;5013715;28;20160;-78
2021/05/03 02:38:36;;;;;;;2.85;2.65;;;11.00;44.30;;;;;;4996981;28;20038;-78
2021/05/03 02:41:02;;;;;;;2.83;2.63;;;11.00;44.30;;;;;;5031273;28;20504;-77
2021/05/03 02:43:28;;;;;;;3.38;2.88;;;11.00;44.40;;;;;;5031135;28;20035;-78
2021/05/03 02:45:54;;;;;;;3.47;3.17;;;11.00;44.40;;;;;;5031172;28;20381;-78
2021/05/03 02:48:20;;;;;;;3.25;2.95;;;11.00;44.40;;;;;;5030291;28;20389;-78
2021/05/03 02:50:46;;;;;;;4.18;2.60;;;10.90;44.30;;;;;;5031004;28;20108;-79
2021/05/03 02:53:12;;;;;;;2.47;2.28;;;10.90;44.30;;;;;;5030745;28;20120;-79
2021/05/03 02:55:38;;;;;;;4.70;2.95;;;10.90;44.30;;;;;;5013200;28;20117;-77
2021/05/03 02:58:04;;;;;;;3.63;2.88;;;10.90;44.30;;;;;;5013043;28;20128;-79
2021/05/03 03:00:34;;;;;;;2.83;2.50;;;10.90;44.40;;;;;;5013460;28;20026;-78
2021/05/03 03:03:02;;;;;;;3.90;2.72;;;10.90;44.50;;;;;;4997128;28;20037;-78
2021/05/03 03:05:28;;;;;;;2.47;2.28;;;10.90;44.50;;;;;;5016872;28;20512;-78
2021/05/03 03:07:57;;;;;;;2.92;2.72;;;10.80;44.30;;;;;;5017293;28;20546;-79
2021/05/03 03:10:23;;;;;;;3.60;2.85;;;10.80;44.30;;;;;;5034876;28;20025;-79
2021/05/03 03:12:49;;;;;;;2.80;2.50;;;10.80;44.40;;;;;;5035189;28;20045;-78
2021/05/03 03:15:18;;;;;;;2.83;2.63;;;10.70;44.20;;;;;;5035120;28;20080;-77
2021/05/03 03:17:52;;;;;;;3.70;2.95;;;10.70;44.30;;;;;;5034903;28;20136;-78
2021/05/03 03:20:20;;;;;;;3.05;2.75;;;10.70;44.40;;;;;;5033200;28;20119;-78
2021/05/03 03:22:47;;;;;;;3.95;2.90;;;10.70;44.40;;;;;;5034614;28;20393;-78
2021/05/03 03:25:13;;;;;;;3.70;2.83;;;10.60;44.20;;;;;;5016700;28;20037;-78
2021/05/03 03:27:40;;;;;;;4.30;3.03;;;10.60;44.30;;;;;;5034700;28;20128;-78
2021/05/03 03:30:09;;;;;;;3.17;2.72;;;10.50;44.10;;;;;;5034101;28;20489;-78
2021/05/03 03:32:38;;;;;;;3.20;2.80;;;10.50;44.20;;;;;;5034755;28;20037;-79
2021/05/03 03:35:05;;;;;;;3.72;3.33;;;10.50;44.20;;;;;;5034420;28;20045;-78
2021/05/03 03:37:31;;;;;;;3.08;2.75;;;10.50;44.30;;;;;;5034241;28;20041;-78
2021/05/03 03:39:57;;;;;;;2.97;2.58;;;10.40;44.20;;;;;;5034478;28;20465;-78
2021/05/03 03:42:23;;;;;;;2.97;2.63;;;10.40;44.20;;;;;;5034116;28;20038;-79
2021/05/03 03:44:49;;;;;;;2.78;2.58;;;10.40;44.30;;;;;;5034396;28;20033;-80
2021/05/03 03:47:15;;;;;;;3.08;2.80;;;10.40;44.30;;;;;;5016431;28;20041;-78
2021/05/03 03:49:41;;;;;;;2.97;2.70;;;10.40;44.40;;;;;;5016680;28;20161;-80
2021/05/03 03:52:07;;;;;;;3.58;3.17;;;10.40;44.50;;;;;;5034546;28;20304;-77
2021/05/03 03:54:33;;;;;;;3.35;3.05;;;10.30;44.30;;;;;;5034789;28;20511;-78
2021/05/03 03:56:59;;;;;;;3.75;3.08;;;10.30;44.30;;;;;;5034209;28;20034;-80
2021/05/03 03:59:25;;;;;;;2.70;2.50;;;10.30;44.40;;;;;;5032590;28;20034;-78
2021/05/03 04:01:51;;;;;;;3.10;2.80;;;10.30;44.40;;;;;;5034053;28;20036;-78
2021/05/03 04:04:26;;;;;;;3.28;3.00;;;10.30;44.50;;;;;;5032513;28;20034;-78
2021/05/03 04:07:02;;;;;;;3.05;2.83;;;10.30;44.50;;;;;;5033861;28;20096;-78
2021/05/03 04:09:48;;;;;;;3.20;2.67;;;10.30;44.50;;;;;;5033558;28;20033;-79
2021/05/03 04:26:04;;;;;;;3.13;2.83;;;10.20;44.20;;;;;;5009424;28;20075;-79
2021/05/03 04:28:30;;;;;;;3.17;2.95;;;10.30;45.00;;;;;;5033109;28;20076;-79
2021/05/03 04:30:56;;;;;;;3.30;2.83;;;10.20;44.90;;;;;;5033267;28;20026;-79
2021/05/03 04:33:23;;;;;;;3.65;3.00;;;10.20;44.40;;;;;;5033353;28;20124;-80
2021/05/03 04:35:49;;;;;;;3.28;2.97;;;10.20;44.50;;;;;;5033061;28;20033;-79
2021/05/03 04:38:15;;;;;;;3.30;3.00;;;10.20;44.50;;;;;;5033286;28;20049;-80
2021/05/03 04:40:46;;;;;;;3.72;3.30;;;10.20;44.60;;;;;;5033498;28;20026;-79
2021/05/03 04:43:13;;;;;;;3.47;3.15;;;10.20;44.60;;;;;;5015621;28;20484;-80
2021/05/03 04:45:39;;;;;;;3.38;3.08;;;10.20;44.60;;;;;;5032614;28;20022;-78
2021/05/03 04:48:06;;;;;;;3.80;3.38;;;10.20;44.60;;;;;;5008521;28;20038;-79
2021/05/03 04:50:32;;;;;;;3.78;3.05;;;10.30;44.90;;;;;;5007433;28;20030;-81
2021/05/03 04:52:58;;;;;;;3.58;3.22;;;10.20;44.70;;;;;;5010743;28;20060;-79
2021/05/03 04:55:24;;;;;;;3.47;3.10;;;10.20;44.70;;;;;;5030355;28;20465;-79
2021/05/03 04:57:50;;;;;;;4.43;2.85;;;10.20;44.70;;;;;;5012147;28;20037;-81
2021/05/03 05:00:16;;;;;;;3.30;3.00;;;10.20;44.70;;;;;;5029821;28;20409;-78
2021/05/03 05:02:42;;;;;;;3.47;2.70;;;10.20;44.80;;;;;;5023352;28;20038;-78
2021/05/03 05:05:13;;;;;;;3.50;3.00;;;10.20;44.80;;;;;;5008592;28;20026;-80
2021/05/03 05:07:40;;;;;;;4.75;3.17;;;10.20;44.80;;;;;;5010082;28;20037;-80
2021/05/03 05:10:08;;;;;;;3.25;2.95;;;10.30;45.00;;;;;;5027280;28;20021;-79
2021/05/03 05:12:34;;;;;;;3.90;3.30;;;10.30;45.00;;;;;;5028281;28;20382;-78
2021/05/03 05:15:00;;;;;;;3.13;2.72;;;10.30;45.00;;;;;;5029021;28;20045;-79
2021/05/03 05:17:26;;;;;;;3.53;3.22;;;10.30;45.00;;;;;;5027727;28;20135;-78
2021/05/03 05:19:53;;;;;;;3.83;3.03;;;10.30;45.00;;;;;;5028346;28;20128;-78
2021/05/03 05:22:19;;;;;;;3.25;2.97;;;10.40;45.20;;;;;;5028273;28;20083;-79
2021/05/03 05:24:45;;;;;;;4.13;3.33;;;10.40;45.20;;;;;;5027554;28;20029;-79
2021/05/03 05:27:12;;;;;;;3.25;2.95;;;10.40;45.20;;;;;;5027444;28;20053;-79
2021/05/03 05:29:38;;;;;;;3.20;2.90;;;10.40;45.20;;;;;;5028211;28;20033;-78
2021/05/03 05:32:04;;;;;;;4.05;3.10;;;10.40;45.10;;;;;;5028976;28;20501;-78
2021/05/03 05:34:30;;;;;;;3.67;3.15;;;10.40;45.10;;;;;;5010324;28;20116;-77
2021/05/03 05:36:56;;;;;;;3.58;3.28;;;10.50;45.30;;;;;;5028109;28;20361;-78
2021/05/03 05:39:23;;;;;;;3.70;2.97;;;10.50;45.30;;;;;;5028368;28;20388;-81
2021/05/03 05:41:48;;;;;;;3.20;2.90;;;10.50;45.30;;;;;;5028073;28;20030;-77
2021/05/03 05:44:14;;;;;;;3.50;3.17;;;10.50;45.30;;;;;;5027956;28;20094;-80
2021/05/03 05:46:41;;;;;;;4.57;3.30;;;10.50;45.30;;;;;;5029266;28;20072;-79
2021/05/03 05:49:07;;;;;;;3.10;2.90;;;10.50;45.30;;;;;;5030641;28;20296;-78
2021/05/03 05:51:34;;;;;;;3.13;2.83;;;10.60;45.50;;;;;;5014147;28;20033;-80
2021/05/03 05:54:01;;;;;;;3.45;3.15;;;10.60;45.50;;;;;;5029845;28;20462;-80
2021/05/03 05:56:27;;;;;;;3.40;3.10;;;10.60;45.50;;;;;;5029984;28;20022;-80
2021/05/03 05:58:53;;;;;;;4.10;3.70;;;10.60;45.40;;;;;;5026923;28;20524;-78
2021/05/03 06:01:21;;;;;;;4.03;3.63;;;10.60;45.40;;;;;;5028225;28;20038;-78
2021/05/03 06:03:47;;;;;;;4.20;3.80;;;10.70;45.50;;;;;;5020313;28;20083;-78
2021/05/03 06:06:13;;;;;;;3.75;3.45;;;10.70;45.50;;;;;;5028278;28;20122;-83
2021/05/03 06:08:39;;;;;;;3.70;3.40;;;10.70;45.50;;;;;;5028722;28;20286;-81
2021/05/03 06:11:05;;;;;;;3.65;3.35;;;10.80;45.70;;;;;;5026800;28;20026;-80
2021/05/03 06:13:31;;;;;;;5.22;3.17;;;10.80;45.60;;;;;;5033507;28;20385;-82
2021/05/03 06:15:57;;;;;;;4.18;3.47;;;10.90;45.80;;;;;;4984078;28;20030;-80
2021/05/03 06:18:23;;;;;;;3.75;3.40;;;10.90;45.70;;;;;;5009190;28;20037;-81
2021/05/03 06:20:50;;;;;;;4.10;3.65;;;10.90;45.90;;;;;;5021860;28;20022;-79
2021/05/03 06:23:16;;;;;;;6.00;3.70;;;10.90;46.30;;;;;;5009346;28;20026;-79
2021/05/03 06:25:43;;;;;;;3.55;3.25;;;11.00;47.00;;;;;;5001775;28;20505;-78
2021/05/03 06:28:10;;;;;;;4.75;3.70;;;11.00;47.90;;;;;;5020370;28;20274;-79
2021/05/03 06:30:36;;;;;;;3.88;3.30;;;11.10;47.70;;;;;;5026422;28;20496;-79
2021/05/03 06:33:03;;;;;;;5.03;3.95;;;11.10;47.90;;;;;;5026613;28;20037;-79
2021/05/03 06:35:30;;;;;;;4.15;3.75;;;11.10;48.20;;;;;;5026925;28;20029;-79
2021/05/03 06:37:55;;;;;;;4.53;3.30;;;11.20;48.50;;;;;;4993521;28;20045;-77
2021/05/03 06:40:22;;;;;;;4.65;3.58;;;11.20;48.60;;;;;;5026679;28;20033;-80
2021/05/03 06:42:49;;;;;;;3.97;3.58;;;11.20;48.80;;;;;;5021090;28;20052;-79
2021/05/03 06:45:17;;;;;;;4.35;3.95;;;11.30;49.10;;;;;;5024043;28;20092;-78
2021/05/03 06:47:46;;;;;;;4.18;3.78;;;11.30;49.20;;;;;;5027229;28;20065;-79
2021/05/03 06:50:14;;;;;;;4.18;3.75;;;11.30;49.30;;;;;;5008924;28;20119;-79
2021/05/03 06:52:46;;;;;;;4.43;3.80;;;11.30;49.40;;;;;;5026646;28;20037;-79
2021/05/03 06:55:13;;;;;;;4.07;3.78;;;11.40;49.80;;;;;;5008338;28;20033;-78
2021/05/03 06:57:40;;;;;;;4.20;3.80;;;11.40;49.80;;;;;;5024579;28;20037;-79
2021/05/03 07:00:08;;;;;;;4.25;3.85;;;11.50;50.10;;;;;;5004498;28;20041;-78
2021/05/03 07:02:35;;;;;;;4.97;4.10;;;11.50;50.20;;;;;;5023935;28;20022;-77
2021/05/03 07:05:01;;;;;;;4.90;4.30;;;11.50;50.30;;;;;;5021005;28;20034;-78
2021/05/03 07:07:27;;;;;;;5.10;4.60;;;11.60;50.50;;;;;;4990009;28;20041;-78
2021/05/03 07:09:53;;;;;;;9.15;4.93;;;11.60;50.50;;;;;;5026135;28;20124;-77
2021/05/03 07:12:21;;;;;;;5.15;4.18;;;11.70;50.70;;;;;;5026045;28;20148;-78
2021/05/03 07:14:48;;;;;;;6.15;4.70;;;11.70;50.70;;;;;;5025553;28;20167;-78
2021/05/03 07:17:14;;;;;;;5.25;4.80;;;11.80;50.90;;;;;;5026059;28;20032;-78
2021/05/03 07:19:41;;;;;;;5.80;4.07;;;11.80;50.90;;;;;;5008755;28;20049;-80
2021/05/03 07:22:08;;;;;;;4.80;4.22;;;11.90;51.20;;;;;;5025349;28;20500;-81
2021/05/03 07:24:38;;;;;;;4.68;4.28;;;12.00;51.40;;;;;;5026222;28;20033;-80
2021/05/03 07:27:09;;;;;;;4.40;4.00;;;12.00;51.40;;;;;;5026181;28;20053;-81
2021/05/03 07:29:35;;;;;;;4.22;3.85;;;12.10;51.60;;;;;;5008823;28;20029;-81
2021/05/03 07:32:02;;;;;;;4.53;4.10;;;12.20;51.70;;;;;;5005205;28;20474;-82
2021/05/03 07:34:28;;;;;;;4.18;3.83;;;12.40;52.00;;;;;;5016423;28;20041;-81
2021/05/03 07:36:54;;;;;;;4.80;4.30;;;12.50;52.10;;;;;;5025518;28;20052;-81
2021/05/03 07:39:20;;;;;;;4.85;4.45;;;12.60;52.20;;;;;;5018373;28;20128;-82
2021/05/03 07:41:46;;;;;;;4.30;3.90;;;12.70;52.20;;;;;;5027323;28;20033;-83
2021/05/03 07:44:12;;;;;;;5.47;4.47;;;12.90;52.50;;;;;;5027723;28;20040;-81
2021/05/03 07:46:38;;;;;;;4.63;4.22;;;13.00;52.60;;;;;;5008674;28;20030;-82
2021/05/03 07:49:06;;;;;;;4.53;4.13;;;13.10;52.60;;;;;;5026724;28;20029;-80
2021/05/03 07:51:32;;;;;;;4.60;4.20;;;13.20;52.60;;;;;;5030510;28;20044;-78
2021/05/03 07:54:00;;;;;;;3.83;3.53;;;13.40;52.80;;;;;;5029755;28;20022;-78
2021/05/03 07:56:30;;;;;;;4.40;3.88;;;13.50;52.80;;;;;;5028083;28;20029;-78
2021/05/03 07:58:57;;;;;;;4.20;3.80;;;13.60;52.80;;;;;;5012161;28;20037;-78
2021/05/03 08:01:23;;;;;;;4.88;3.65;;;13.70;52.90;;;;;;5029625;28;20092;-83
2021/05/03 08:03:49;;;;;;;3.53;3.22;;;13.80;53.00;;;;;;4988300;28;20544;-82
2021/05/03 08:06:17;;;;;;;3.67;3.38;;;13.90;53.10;;;;;;5012147;28;20488;-78
2021/05/03 08:08:45;;;;;;;3.45;3.10;;;13.90;53.00;;;;;;5029236;28;20519;-80
2021/05/03 08:11:13;;;;;;;3.55;3.25;;;14.00;53.20;;;;;;5029517;28;20026;-80
2021/05/03 08:13:42;;;;;;;4.10;3.80;;;14.10;53.40;;;;;;5013435;28;20052;-80
2021/05/03 08:16:09;;;;;;;4.50;3.38;;;14.10;53.30;;;;;;5029360;28;20036;-83
2021/05/03 08:18:35;;;;;;;3.85;3.47;;;14.10;53.20;;;;;;5016183;28;20441;-82
2021/05/03 08:21:02;;;;;;;3.58;3.28;;;14.20;53.40;;;;;;5030456;28;20029;-81
2021/05/03 08:23:28;;;;;;;3.50;3.20;;;14.30;53.50;;;;;;5004263;28;20069;-80
2021/05/03 08:25:55;;;;;;;3.47;3.17;;;14.40;53.50;;;;;;5028448;28;20084;-79
2021/05/03 08:28:22;;;;;;;4.40;3.45;;;14.50;53.50;;;;;;5027896;28;20204;-79
2021/05/03 08:30:50;;;;;;;3.35;3.05;;;14.70;53.60;;;;;;5011177;28;20367;-79
2021/05/03 08:33:18;;;;;;;3.40;2.83;;;14.90;53.80;;;;;;5028726;28;20064;-81
2021/05/03 08:35:44;;;;;;;3.80;3.47;;;15.00;53.70;;;;;;5011305;28;20030;-81
2021/05/03 08:38:10;;;;;;;3.63;3.33;;;15.20;53.80;;;;;;5028098;28;20041;-81
2021/05/03 08:40:37;;;;;;;3.40;3.05;;;15.50;53.90;;;;;;5029555;28;20384;-80
2021/05/03 08:43:05;;;;;;;3.35;2.78;;;15.80;53.90;;;;;;5010213;28;20156;-82
2021/05/03 08:45:36;;;;;;;3.17;2.88;;;16.00;53.80;;;;;;5029562;28;20049;-80
2021/05/03 08:53:13;;;;;;;6.40;3.28;;;16.50;53.90;;;;;;5028570;28;20434;-84
2021/05/03 08:55:39;;;;;;;5.38;2.88;;;16.60;53.80;;;;;;5012359;28;20028;-83
2021/05/03 08:58:05;;;;;;;2.80;2.45;;;16.80;54.10;;;;;;5014984;28;20143;-85
2021/05/03 09:00:31;;;;;;;11.32;3.15;;;16.90;54.10;;;;;;5029073;28;20193;-82
2021/05/03 09:03:00;;;;;;;3.38;2.85;;;16.90;53.90;;;;;;5027843;28;20072;-83
2021/05/03 09:05:26;;;;;;;3.28;2.53;;;17.00;54.00;;;;;;5027367;28;20113;-81
2021/05/03 09:07:53;;;;;;;3.95;2.63;;;17.00;53.90;;;;;;5028141;28;20025;-79
2021/05/03 09:10:21;;;;;;;3.08;2.40;;;17.00;53.70;;;;;;5028458;28;20424;-79
2021/05/03 09:12:48;;;;;;;3.78;2.42;;;17.10;53.70;;;;;;5006904;28;20065;-78
2021/05/03 09:15:24;;;;;;;5.55;2.67;;;17.10;53.70;;;;;;5024370;28;20040;-78
2021/05/03 09:17:53;;;;;;;2.28;2.05;;;17.00;53.40;;;;;;5026446;28;20493;-78
2021/05/03 09:20:22;;;;;;;3.13;2.63;;;17.00;53.40;;;;;;5027994;28;20029;-78
2021/05/03 09:22:52;;;;;;;4.80;2.60;;;17.00;53.30;;;;;;5010002;28;20117;-79
2021/05/03 09:25:27;;;;;;;4.38;2.42;;;17.00;53.40;;;;;;5027680;28;20079;-78
2021/05/03 09:28:16;;;;;;;3.15;2.40;;;17.10;53.50;;;;;;5025773;28;20060;-78
2021/05/03 09:30:47;;;;;;;4.65;2.22;;;17.20;53.50;;;;;;5027984;28;20033;-78
2021/05/03 09:33:19;;;;;;;2.45;2.05;;;17.30;53.40;;;;;;5008630;28;20029;-77
2021/05/03 09:35:51;;;;;;;3.50;2.50;;;17.40;53.20;;;;;;5028111;28;20034;-77
2021/05/03 09:38:38;;;;;;;2.30;2.10;;;17.40;52.90;;;;;;5025178;28;20116;-77
2021/05/03 09:41:13;;;;;;;2.22;2.03;;;17.50;52.90;;;;;;5027238;28;20033;-77
2021/05/03 09:43:42;;;;;;;2.03;1.83;;;17.50;52.70;;;;;;5027139;28;20022;-79
2021/05/03 09:46:27;;;;;;;2.45;2.10;;;17.50;52.60;;;;;;5027182;28;20040;-79
2021/05/03 09:48:54;;;;;;;2.45;2.10;;;17.50;52.40;;;;;;5027616;28;20048;-78
2021/05/03 09:51:40;;;;;;;2.35;2.15;;;17.50;52.30;;;;;;5009624;28;20047;-78
2021/05/03 09:54:12;;;;;;;2.17;1.98;;;17.40;52.00;;;;;;5025838;28;20102;-78
2021/05/03 09:56:51;;;;;;;1.95;1.65;;;17.30;51.80;;;;;;5027383;28;20524;-80
2021/05/03 09:59:44;;;;;;;2.10;2.00;;;17.20;51.70;;;;;;5025277;28;20068;-79
2021/05/03 10:02:29;;;;;;;3.28;1.95;;;17.20;51.90;;;;;;5009503;28;20025;-77
2021/05/03 10:05:01;;;;;;;2.10;1.90;;;17.30;52.70;;;;;;5025430;28;20320;-78
2021/05/03 10:07:29;;;;;;;4.65;1.92;;;17.40;52.10;;;;;;5027368;28;20044;-80
2021/05/03 10:10:01;;;;;;;3.50;1.67;;;17.50;52.10;;;;;;5020358;28;20021;-79
2021/05/03 10:12:29;;;;;;;2.85;1.92;;;17.60;52.10;;;;;;5005024;28;20100;-79
2021/05/03 10:14:58;;;;;;;2.30;2.10;;;17.80;52.20;;;;;;5020894;28;20030;-80
2021/05/03 10:17:27;;;;;;;2.22;1.95;;;17.90;52.20;;;;;;5026631;28;20247;-82
2021/05/03 10:19:57;;;;;;;2.60;1.70;;;18.00;52.20;;;;;;5038187;28;20248;-79
2021/05/03 10:22:24;;;;;;;2.72;2.00;;;18.10;52.20;;;;;;5007207;28;20533;-79
2021/05/03 10:24:53;;;;;;;2.70;2.00;;;18.20;52.30;;;;;;5006819;28;20032;-79
2021/05/03 10:27:20;;;;;;;2.17;1.95;;;18.20;52.10;;;;;;5007418;28;20133;-80
2021/05/03 10:29:47;;;;;;;4.28;1.90;;;18.30;52.10;;;;;;5006381;28;20116;-76
2021/05/03 10:32:23;;;;;;;2.10;1.60;;;18.30;52.00;;;;;;5026563;28;20444;-78
2021/05/03 10:34:51;;;;;;;2.80;1.70;;;18.30;51.80;;;;;;5025986;28;20065;-77
2021/05/03 10:37:33;;;;;;;2.85;1.83;;;18.30;51.70;;;;;;5026544;28;20025;-75
2021/05/03 10:40:05;;;;;;;3.25;2.10;;;18.30;51.70;;;;;;5000699;28;20555;-78
2021/05/03 10:42:32;;;;;;;2.40;1.75;;;18.20;51.50;;;;;;5007683;28;20029;-77
2021/05/03 10:45:21;;;;;;;3.25;1.77;;;18.20;51.50;;;;;;5026324;28;20026;-76
2021/05/03 10:47:54;;;;;;;2.47;1.70;;;18.20;51.40;;;;;;5026342;28;20034;-77
2021/05/03 10:50:35;;;;;;;6.63;2.50;;;18.20;51.30;;;;;;5025164;28;20512;-77
2021/05/03 10:53:26;;;;;;;4.70;2.55;;;18.20;51.20;;;;;;5025526;28;20030;-78
2021/05/03 10:56:11;;;;;;;5.40;2.90;;;18.20;51.20;;;;;;5026521;28;20048;-79
2021/05/03 10:59:11;;;;;;;5.38;3.15;;;18.20;51.20;;;;;;5025942;28;20052;-78
2021/05/03 11:01:53;;;;;;;3.40;2.80;;;18.30;51.40;;;;;;5024339;28;20045;-78
2021/05/03 11:04:23;;;;;;;5.07;3.00;;;18.40;51.50;;;;;;5026323;28;20025;-78
2021/05/03 11:06:49;;;;;;;5.07;2.78;;;18.60;51.70;;;;;;5026819;28;20037;-77
2021/05/03 11:12:13;;;;;;;11.80;5.85;;;19.00;52.00;;;;;;5025883;28;20471;-77
2021/05/03 11:15:09;;;;;;;14.15;9.40;;;19.10;51.90;;;;;;5019389;28;20488;-78
2021/05/03 11:17:36;;;;;;;12.00;7.63;;;19.40;52.40;;;;;;5008683;28;20222;-79
2021/05/03 11:20:16;;;;;;;14.57;7.50;;;19.60;52.40;;;;;;5009350;28;20030;-77
2021/05/03 11:23:04;;;;;;;13.13;7.43;;;19.80;52.60;;;;;;5008630;28;20036;-78
2021/05/03 11:25:36;;;;;;;12.75;7.70;;;19.90;52.40;;;;;;5011004;28;20036;-79
2021/05/03 11:28:15;;;;;;;9.50;6.50;;;20.10;52.50;;;;;;4993055;28;20521;-79
2021/05/03 11:30:45;;;;;;;11.85;6.88;;;20.20;52.50;;;;;;5010496;28;20029;-77
2021/05/03 11:33:20;;;;;;;11.30;7.40;;;20.30;52.50;;;;;;5009754;28;20041;-77
2021/05/03 11:35:55;;;;;;;13.38;7.53;;;20.40;52.50;;;;;;5009972;28;20159;-76
2021/05/03 11:46:32;;;;;;;9.20;6.68;;;20.70;52.40;;;;;;5008952;28;20385;-76
2021/05/03 11:48:59;;;;;;;12.80;6.43;;;20.70;52.20;;;;;;5009518;28;20046;-79
2021/05/03 11:51:26;;;;;;;6.45;5.57;;;20.60;52.00;;;;;;5008437;28;20128;-78
2021/05/03 11:53:52;;;;;;;12.57;5.93;;;20.60;52.00;;;;;;5009704;28;20069;-78
2021/05/03 11:56:25;;;;;;;10.05;5.78;;;20.50;51.70;;;;;;4992397;28;20080;-77
2021/05/03 11:58:53;;;;;;;11.70;5.55;;;20.50;51.70;;;;;;4991976;28;20524;-77
2021/05/03 12:01:22;;;;;;;6.60;4.72;;;20.40;51.50;;;;;;5009513;28;20029;-77
2021/05/03 12:03:51;;;;;;;10.25;5.78;;;20.20;51.30;;;;;;5009578;28;20396;-77
2021/05/03 12:06:38;;;;;;;6.68;4.60;;;20.20;51.50;;;;;;4988623;28;20054;-77
2021/05/03 12:09:05;;;;;;;5.15;4.53;;;20.20;51.60;;;;;;5020681;28;20124;-78
2021/05/03 12:11:32;;;;;;;13.50;4.68;;;20.30;51.70;;;;;;5029022;28;20040;-78
2021/05/03 12:13:58;;;;;;;6.80;4.43;;;20.30;51.60;;;;;;5016743;28;20030;-79
2021/05/03 12:16:40;;;;;;;5.20;4.28;;;20.40;51.50;;;;;;4992448;28;20125;-80
2021/05/03 12:19:15;;;;;;;8.82;4.30;;;20.40;51.40;;;;;;5008550;28;20052;-77
2021/05/03 12:21:42;;;;;;;5.75;4.47;;;20.40;51.30;;;;;;5009755;28;20033;-77
2021/05/03 12:24:33;;;;;;;8.45;4.53;;;20.40;51.30;;;;;;5010279;28;20041;-77
2021/05/03 12:27:00;;;;;;;9.25;5.10;;;20.30;51.10;;;;;;5021062;28;20045;-79
2021/05/03 12:29:29;;;;;;;8.45;4.00;;;20.30;51.10;;;;;;5028623;28;20044;-78
2021/05/03 12:31:55;;;;;;;7.10;3.78;;;20.30;51.10;;;;;;5029090;28;20405;-78
2021/05/03 12:34:23;;;;;;;6.25;4.47;;;20.20;51.00;;;;;;5028496;28;20042;-77
2021/05/03 12:37:09;;;;;;;7.32;3.60;;;20.30;51.20;;;;;;5028928;28;20033;-77
2021/05/03 12:39:38;;;;;;;6.57;4.20;;;20.30;51.00;;;;;;5010012;28;20426;-78
2021/05/03 12:42:17;;;;;;;5.65;4.25;;;20.40;51.20;;;;;;4995178;28;20029;-76
2021/05/03 12:44:50;;;;;;;4.85;3.50;;;20.30;50.80;;;;;;5028238;28;20426;-77
2021/05/03 12:47:52;;;;;;;4.88;3.50;;;20.30;50.80;;;;;;5029413;28;20168;-77
2021/05/03 12:50:26;;;;;;;7.43;4.10;;;20.20;50.70;;;;;;5028666;28;20037;-76
2021/05/03 12:53:29;;;;;;;5.22;3.63;;;20.20;50.70;;;;;;5028275;28;20029;-77
2021/05/03 12:59:15;;;;;;;5.53;3.47;;;19.90;50.40;;;;;;5028150;28;20041;-77
2021/05/03 13:04:23;;;;;;;5.82;3.22;;;19.60;50.10;;;;;;5010425;28;20034;-76
2021/05/03 13:29:42;;;;;;;4.75;2.85;;;18.70;49.70;;;;;;5006570;28;20033;-77
2021/05/03 13:32:13;;;;;;;6.15;3.30;;;18.60;49.60;;;;;;5023382;28;20093;-77
2021/05/03 13:34:39;;;;;;;4.20;2.85;;;18.50;49.50;;;;;;5007493;28;20033;-77
2021/05/03 13:37:05;;;;;;;4.30;2.37;;;18.40;49.50;;;;;;5008131;28;20489;-78
2021/05/03 13:39:31;;;;;;;5.25;2.72;;;18.40;49.60;;;;;;5006218;28;20540;-76
2021/05/03 13:41:57;;;;;;;5.28;2.95;;;18.30;49.60;;;;;;5007797;28;20389;-79
2021/05/03 13:44:24;;;;;;;4.57;2.65;;;18.20;49.50;;;;;;5007341;28;20460;-79
2021/05/03 13:46:50;;;;;;;4.85;2.67;;;18.10;49.50;;;;;;5007751;28;20036;-77
2021/05/03 13:49:16;;;;;;;6.55;2.50;;;18.00;49.40;;;;;;5007332;28;20064;-78
2021/05/03 13:51:43;;;;;;;5.28;3.20;;;18.00;49.60;;;;;;5014259;28;20034;-76
2021/05/03 13:54:11;;;;;;;5.20;2.65;;;17.90;49.60;;;;;;5007351;28;20409;-77